sensor_id;sensor_type;location;lat;lon;timestamp;pressure;altitude;pressure_sealevel;temperature;humidity
6668;BME280;3370;47.712;9.082;2023-07-29T00:02:02;96713.47;;;16.88;100.00
6668;BME280;3370;47.712;9.082;2023-07-29T00:04:28;96710.19;;;16.86;100.00
6668;BME280;3370;47.712;9.082;2023-07-29T00:06:54;96712.53;;;16.89;100.00
6668;BME280;3370;47.712;9.082;2023-07-29T00:09:19;96718.41;;;16.91;100.00
6668;BME280;3370;47.712;9.082;2023-07-29T00:11:45;96721.75;;;16.93;100.00
6668;BME280;3370;47.712;9.082;2023-07-29T00:14:11;96719.59;;;16.98;100.00
6668;BME280;3370;47.712;9.082;2023-07-29T00:16:36;96720.09;;;17.03;100.00
6668;BME280;3370;47.712;9.082;2023-07-29T00:19:03;96712.19;;;17.05;100.00
6668;BME280;3370;47.712;9.082;2023-07-29T00:21:29;96703.56;;;17.04;100.00
6668;BME280;3370;47.712;9.082;2023-07-29T00:23:54;96697.31;;;17.07;100.00
6668;BME280;3370;47.712;9.082;2023-07-29T00:26:23;96692.00;;;17.09;100.00
6668;BME280;3370;47.712;9.082;2023-07-29T00:28:51;96689.06;;;17.13;100.00
6668;BME280;3370;47.712;9.082;2023-07-29T00:31:17;96682.56;;;17.19;100.00
6668;BME280;3370;47.712;9.082;2023-07-29T00:33:43;96681.13;;;17.15;100.00
6668;BME280;3370;47.712;9.082;2023-07-29T00:36:09;96689.88;;;17.14;100.00
6668;BME280;3370;47.712;9.082;2023-07-29T00:38:34;96691.50;;;17.15;100.00
6668;BME280;3370;47.712;9.082;2023-07-29T00:41:03;96693.53;;;17.00;100.00
6668;BME280;3370;47.712;9.082;2023-07-29T00:43:29;96696.34;;;16.97;100.00
6668;BME280;3370;47.712;9.082;2023-07-29T00:45:55;96686.09;;;16.95;100.00
6668;BME280;3370;47.712;9.082;2023-07-29T00:48:23;96687.03;;;16.94;100.00
6668;BME280;3370;47.712;9.082;2023-07-29T00:50:50;96688.00;;;16.93;100.00
6668;BME280;3370;47.712;9.082;2023-07-29T00:53:16;96676.66;;;16.94;100.00
6668;BME280;3370;47.712;9.082;2023-07-29T00:55:42;96683.63;;;16.94;100.00
6668;BME280;3370;47.712;9.082;2023-07-29T00:58:08;96683.63;;;16.94;100.00
6668;BME280;3370;47.712;9.082;2023-07-29T01:00:34;96685.72;;;17.00;100.00
6668;BME280;3370;47.712;9.082;2023-07-29T01:03:01;96680.19;;;17.04;100.00
6668;BME280;3370;47.712;9.082;2023-07-29T01:05:34;96687.13;;;17.04;100.00
6668;BME280;3370;47.712;9.082;2023-07-29T01:08:27;96688.81;;;17.05;100.00
6668;BME280;3370;47.712;9.082;2023-07-29T01:11:19;96687.28;;;17.02;100.00
6668;BME280;3370;47.712;9.082;2023-07-29T01:14:05;96688.09;;;17.03;100.00
6668;BME280;3370;47.712;9.082;2023-07-29T01:16:42;96689.41;;;16.97;100.00
6668;BME280;3370;47.712;9.082;2023-07-29T01:21:56;96683.84;;;16.91;100.00
6668;BME280;3370;47.712;9.082;2023-07-29T01:24:22;96682.31;;;16.88;100.00
6668;BME280;3370;47.712;9.082;2023-07-29T01:26:47;96674.53;;;16.88;100.00
6668;BME280;3370;47.712;9.082;2023-07-29T01:29:13;96678.28;;;16.84;100.00
6668;BME280;3370;47.712;9.082;2023-07-29T01:31:44;96671.81;;;16.90;100.00
6668;BME280;3370;47.712;9.082;2023-07-29T01:34:53;96680.88;;;16.84;100.00
6668;BME280;3370;47.712;9.082;2023-07-29T01:37:26;96667.53;;;16.77;100.00
6668;BME280;3370;47.712;9.082;2023-07-29T01:39:56;96667.63;;;16.76;100.00
6668;BME280;3370;47.712;9.082;2023-07-29T01:42:24;96657.72;;;16.81;100.00
6668;BME280;3370;47.712;9.082;2023-07-29T01:44:50;96663.97;;;16.78;100.00
6668;BME280;3370;47.712;9.082;2023-07-29T01:47:16;96662.34;;;16.77;100.00
6668;BME280;3370;47.712;9.082;2023-07-29T01:49:42;96666.44;;;16.80;100.00
6668;BME280;3370;47.712;9.082;2023-07-29T01:52:08;96667.91;;;16.84;100.00
6668;BME280;3370;47.712;9.082;2023-07-29T01:54:34;96666.44;;;16.80;100.00
6668;BME280;3370;47.712;9.082;2023-07-29T01:56:59;96662.69;;;16.84;100.00
6668;BME280;3370;47.712;9.082;2023-07-29T01:59:25;96654.69;;;16.87;100.00
6668;BME280;3370;47.712;9.082;2023-07-29T02:01:51;96655.38;;;16.89;100.00
6668;BME280;3370;47.712;9.082;2023-07-29T02:04:17;96649.25;;;16.90;100.00
6668;BME280;3370;47.712;9.082;2023-07-29T02:06:42;96649.38;;;16.89;100.00
6668;BME280;3370;47.712;9.082;2023-07-29T02:09:08;96652.09;;;16.87;100.00
6668;BME280;3370;47.712;9.082;2023-07-29T02:11:34;96651.28;;;16.86;100.00
6668;BME280;3370;47.712;9.082;2023-07-29T02:14:00;96646.91;;;16.87;100.00
6668;BME280;3370;47.712;9.082;2023-07-29T02:16:25;96645.00;;;16.89;100.00
6668;BME280;3370;47.712;9.082;2023-07-29T02:18:51;96637.00;;;16.92;100.00
6668;BME280;3370;47.712;9.082;2023-07-29T02:21:17;96645.00;;;16.89;100.00
6668;BME280;3370;47.712;9.082;2023-07-29T02:23:43;96633.81;;;16.89;100.00
6668;BME280;3370;47.712;9.082;2023-07-29T02:26:08;96634.63;;;16.89;100.00
6668;BME280;3370;47.712;9.082;2023-07-29T02:28:34;96633.69;;;16.90;100.00
6668;BME280;3370;47.712;9.082;2023-07-29T02:31:36;96637.09;;;16.91;100.00
6668;BME280;3370;47.712;9.082;2023-07-29T02:34:03;96641.25;;;16.93;100.00
6668;BME280;3370;47.712;9.082;2023-07-29T02:36:29;96649.97;;;16.92;100.00
6668;BME280;3370;47.712;9.082;2023-07-29T02:38:55;96656.84;;;16.93;100.00
6668;BME280;3370;47.712;9.082;2023-07-29T02:41:21;96645.47;;;16.94;100.00
6668;BME280;3370;47.712;9.082;2023-07-29T02:43:50;96655.84;;;17.05;100.00
6668;BME280;3370;47.712;9.082;2023-07-29T02:46:16;96655.97;;;17.04;100.00
6668;BME280;3370;47.712;9.082;2023-07-29T02:48:44;96649.59;;;16.97;100.00
6668;BME280;3370;47.712;9.082;2023-07-29T02:51:10;96644.56;;;16.95;100.00
6668;BME280;3370;47.712;9.082;2023-07-29T02:53:36;96645.38;;;16.96;100.00
6668;BME280;3370;47.712;9.082;2023-07-29T02:56:04;96632.97;;;16.99;100.00
6668;BME280;3370;47.712;9.082;2023-07-29T02:58:33;96631.19;;;17.00;100.00
6668;BME280;3370;47.712;9.082;2023-07-29T03:01:04;96637.78;;;17.04;100.00
6668;BME280;3370;47.712;9.082;2023-07-29T03:03:31;96631.06;;;17.01;100.00
6668;BME280;3370;47.712;9.082;2023-07-29T03:06:03;96636.16;;;17.03;100.00
6668;BME280;3370;47.712;9.082;2023-07-29T03:08:29;96633.44;;;17.04;100.00
6668;BME280;3370;47.712;9.082;2023-07-29T03:10:56;96638.63;;;17.04;100.00
6668;BME280;3370;47.712;9.082;2023-07-29T03:13:22;96635.06;;;17.05;100.00
6668;BME280;3370;47.712;9.082;2023-07-29T03:15:48;96633.19;;;17.08;100.00
6668;BME280;3370;47.712;9.082;2023-07-29T03:18:15;96641.72;;;17.10;100.00
6668;BME280;3370;47.712;9.082;2023-07-29T03:20:41;96641.72;;;17.10;100.00
6668;BME280;3370;47.712;9.082;2023-07-29T03:23:07;96640.03;;;17.09;100.00
6668;BME280;3370;47.712;9.082;2023-07-29T03:25:33;96641.81;;;17.08;100.00
6668;BME280;3370;47.712;9.082;2023-07-29T03:27:59;96639.47;;;17.05;100.00
6668;BME280;3370;47.712;9.082;2023-07-29T03:30:24;96634.38;;;17.03;100.00
6668;BME280;3370;47.712;9.082;2023-07-29T03:32:51;96631.41;;;16.97;100.00
6668;BME280;3370;47.712;9.082;2023-07-29T03:35:17;96635.78;;;16.96;100.00
6668;BME280;3370;47.712;9.082;2023-07-29T03:37:42;96635.09;;;16.94;100.00
6668;BME280;3370;47.712;9.082;2023-07-29T03:40:09;96637.19;;;17.00;100.00
6668;BME280;3370;47.712;9.082;2023-07-29T03:42:36;96638.88;;;17.01;100.00
6668;BME280;3370;47.712;9.082;2023-07-29T03:45:02;96645.47;;;16.94;100.00
6668;BME280;3370;47.712;9.082;2023-07-29T03:47:28;96641.09;;;16.95;100.00
6668;BME280;3370;47.712;9.082;2023-07-29T03:49:53;96653.75;;;16.88;100.00
6668;BME280;3370;47.712;9.082;2023-07-29T03:52:19;96655.38;;;16.89;100.00
6668;BME280;3370;47.712;9.082;2023-07-29T03:54:45;96654.19;;;16.82;100.00
6668;BME280;3370;47.712;9.082;2023-07-29T03:57:11;96652.53;;;16.81;100.00
6668;BME280;3370;47.712;9.082;2023-07-29T03:59:37;96659.19;;;16.85;100.00
6668;BME280;3370;47.712;9.082;2023-07-29T04:02:03;96649.38;;;16.89;100.00
6668;BME280;3370;47.712;9.082;2023-07-29T04:04:29;96658.69;;;16.91;100.00
6668;BME280;3370;47.712;9.082;2023-07-29T04:06:55;96646.44;;;16.93;100.00
6668;BME280;3370;47.712;9.082;2023-07-29T04:09:20;96648.66;;;16.98;100.00
6668;BME280;3370;47.712;9.082;2023-07-29T04:11:46;96651.25;;;16.98;100.00
6668;BME280;3370;47.712;9.082;2023-07-29T04:14:12;96640.53;;;17.02;100.00
6668;BME280;3370;47.712;9.082;2023-07-29T04:16:38;96652.34;;;17.07;100.00
6668;BME280;3370;47.712;9.082;2023-07-29T04:19:03;96659.41;;;17.04;100.00
6668;BME280;3370;47.712;9.082;2023-07-29T04:21:29;96671.44;;;17.05;100.00
6668;BME280;3370;47.712;9.082;2023-07-29T04:23:55;96676.75;;;17.04;100.00
6668;BME280;3370;47.712;9.082;2023-07-29T04:26:21;96675.94;;;17.03;100.00
6668;BME280;3370;47.712;9.082;2023-07-29T04:28:46;96683.28;;;17.10;100.00
6668;BME280;3370;47.712;9.082;2023-07-29T04:31:12;96697.56;;;17.15;100.00
6668;BME280;3370;47.712;9.082;2023-07-29T04:33:38;96704.28;;;17.07;100.00
6668;BME280;3370;47.712;9.082;2023-07-29T04:36:04;96713.00;;;17.05;100.00
6668;BME280;3370;47.712;9.082;2023-07-29T04:38:33;96699.53;;;17.00;100.00
6668;BME280;3370;47.712;9.082;2023-07-29T04:40:59;96691.75;;;17.00;100.00
6668;BME280;3370;47.712;9.082;2023-07-29T04:43:30;96675.94;;;17.03;100.00
6668;BME280;3370;47.712;9.082;2023-07-29T04:45:56;96685.13;;;17.08;100.00
6668;BME280;3370;47.712;9.082;2023-07-29T04:48:22;96687.50;;;17.11;100.00
6668;BME280;3370;47.712;9.082;2023-07-29T04:50:48;96690.81;;;17.13;100.00
6668;BME280;3370;47.712;9.082;2023-07-29T04:53:13;96661.41;;;17.12;100.00
6668;BME280;3370;47.712;9.082;2023-07-29T04:55:42;96656.56;;;17.19;100.00
6668;BME280;3370;47.712;9.082;2023-07-29T04:58:09;96670.97;;;17.23;100.00
6668;BME280;3370;47.712;9.082;2023-07-29T05:00:34;96666.25;;;17.17;100.00
6668;BME280;3370;47.712;9.082;2023-07-29T05:03:00;96670.72;;;17.15;100.00
6668;BME280;3370;47.712;9.082;2023-07-29T05:05:27;96662.94;;;17.15;100.00
6668;BME280;3370;47.712;9.082;2023-07-29T05:07:53;96672.06;;;17.20;100.00
6668;BME280;3370;47.712;9.082;2023-07-29T05:10:18;96657.41;;;17.19;100.00
6668;BME280;3370;47.712;9.082;2023-07-29T05:12:45;96659.88;;;17.21;100.00
6668;BME280;3370;47.712;9.082;2023-07-29T05:15:10;96655.16;;;17.26;100.00
6668;BME280;3370;47.712;9.082;2023-07-29T05:17:36;96661.06;;;17.28;100.00
6668;BME280;3370;47.712;9.082;2023-07-29T05:20:02;96663.53;;;17.30;100.00
6668;BME280;3370;47.712;9.082;2023-07-29T05:22:28;96662.44;;;17.32;100.00
6668;BME280;3370;47.712;9.082;2023-07-29T05:24:54;96655.13;;;17.37;100.00
6668;BME280;3370;47.712;9.082;2023-07-29T05:27:20;96661.03;;;17.39;100.00
6668;BME280;3370;47.712;9.082;2023-07-29T05:29:45;96665.03;;;17.43;100.00
6668;BME280;3370;47.712;9.082;2023-07-29T05:32:11;96671.66;;;17.48;100.00
6668;BME280;3370;47.712;9.082;2023-07-29T05:34:37;96678.13;;;17.53;100.00
6668;BME280;3370;47.712;9.082;2023-07-29T05:37:03;96685.78;;;17.55;100.00
6668;BME280;3370;47.712;9.082;2023-07-29T05:39:30;96690.06;;;17.56;100.00
6668;BME280;3370;47.712;9.082;2023-07-29T05:41:57;96696.94;;;17.57;100.00
6668;BME280;3370;47.712;9.082;2023-07-29T05:44:23;96687.22;;;17.59;100.00
6668;BME280;3370;47.712;9.082;2023-07-29T05:46:49;96693.59;;;17.55;100.00
6668;BME280;3370;47.712;9.082;2023-07-29T05:49:15;96699.38;;;17.58;100.00
6668;BME280;3370;47.712;9.082;2023-07-29T05:51:40;96700.47;;;17.56;100.00
6668;BME280;3370;47.712;9.082;2023-07-29T05:54:06;96699.38;;;17.58;100.00
6668;BME280;3370;47.712;9.082;2023-07-29T05:56:32;96690.53;;;17.61;100.00
6668;BME280;3370;47.712;9.082;2023-07-29T05:58:58;96699.38;;;17.70;100.00
6668;BME280;3370;47.712;9.082;2023-07-29T06:01:23;96697.25;;;17.63;100.00
6668;BME280;3370;47.712;9.082;2023-07-29T06:03:49;96695.69;;;17.72;100.00
6668;BME280;3370;47.712;9.082;2023-07-29T06:06:15;96697.44;;;17.83;100.00
6668;BME280;3370;47.712;9.082;2023-07-29T06:08:41;96697.53;;;17.93;100.00
6668;BME280;3370;47.712;9.082;2023-07-29T06:11:07;96692.91;;;17.96;100.00
6668;BME280;3370;47.712;9.082;2023-07-29T06:13:33;96688.56;;;17.97;100.00
6668;BME280;3370;47.712;9.082;2023-07-29T06:15:58;96688.56;;;17.97;100.00
6668;BME280;3370;47.712;9.082;2023-07-29T06:18:25;96686.44;;;18.02;100.00
6668;BME280;3370;47.712;9.082;2023-07-29T06:20:51;96684.00;;;18.10;100.00
6668;BME280;3370;47.712;9.082;2023-07-29T06:23:17;96689.66;;;18.15;100.00
6668;BME280;3370;47.712;9.082;2023-07-29T06:28:11;96692.31;;;18.36;100.00
6668;BME280;3370;47.712;9.082;2023-07-29T06:30:37;96692.16;;;18.38;100.00
6668;BME280;3370;47.712;9.082;2023-07-29T06:33:03;96691.22;;;18.39;100.00
6668;BME280;3370;47.712;9.082;2023-07-29T06:35:29;96689.06;;;18.44;100.00
6668;BME280;3370;47.712;9.082;2023-07-29T06:37:55;96683.78;;;18.55;100.00
6668;BME280;3370;47.712;9.082;2023-07-29T06:40:21;96678.34;;;18.58;100.00
6668;BME280;3370;47.712;9.082;2023-07-29T06:42:46;96677.47;;;18.58;100.00
6668;BME280;3370;47.712;9.082;2023-07-29T06:45:12;96675.91;;;18.67;100.00
6668;BME280;3370;47.712;9.082;2023-07-29T06:47:38;96690.06;;;18.74;100.00
6668;BME280;3370;47.712;9.082;2023-07-29T06:50:04;96678.25;;;18.70;100.00
6668;BME280;3370;47.712;9.082;2023-07-29T06:52:30;96683.63;;;18.78;100.00
6668;BME280;3370;47.712;9.082;2023-07-29T06:54:56;96692.75;;;18.84;100.00
6668;BME280;3370;47.712;9.082;2023-07-29T06:57:23;96697.75;;;18.96;100.00
6668;BME280;3370;47.712;9.082;2023-07-29T06:59:48;96705.78;;;19.14;100.00
6668;BME280;3370;47.712;9.082;2023-07-29T07:02:14;96703.03;;;19.16;100.00
6668;BME280;3370;47.712;9.082;2023-07-29T07:04:40;96708.88;;;19.29;100.00
6668;BME280;3370;47.712;9.082;2023-07-29T07:07:06;96700.94;;;19.41;100.00
6668;BME280;3370;47.712;9.082;2023-07-29T07:09:31;96701.50;;;19.44;100.00
6668;BME280;3370;47.712;9.082;2023-07-29T07:11:57;96698.22;;;19.52;100.00
6668;BME280;3370;47.712;9.082;2023-07-29T07:14:23;96701.25;;;19.47;100.00
6668;BME280;3370;47.712;9.082;2023-07-29T07:16:49;96680.94;;;19.51;100.00
6668;BME280;3370;47.712;9.082;2023-07-29T07:19:14;96671.47;;;19.50;100.00
6668;BME280;3370;47.712;9.082;2023-07-29T07:21:40;96680.63;;;19.44;100.00
6668;BME280;3370;47.712;9.082;2023-07-29T07:24:06;96669.09;;;19.47;100.00
6668;BME280;3370;47.712;9.082;2023-07-29T07:26:32;96666.13;;;19.61;100.00
6668;BME280;3370;47.712;9.082;2023-07-29T07:28:57;96679.91;;;19.73;100.00
6668;BME280;3370;47.712;9.082;2023-07-29T07:31:23;96677.84;;;19.77;100.00
6668;BME280;3370;47.712;9.082;2023-07-29T07:33:49;96671.66;;;19.78;97.93
6668;BME280;3370;47.712;9.082;2023-07-29T07:36:15;96670.84;;;19.87;99.80
6668;BME280;3370;47.712;9.082;2023-07-29T07:38:41;96669.34;;;19.94;97.51
6668;BME280;3370;47.712;9.082;2023-07-29T07:41:07;96670.59;;;20.09;98.77
6668;BME280;3370;47.712;9.082;2023-07-29T07:43:33;96665.78;;;20.15;94.49
6668;BME280;3370;47.712;9.082;2023-07-29T07:46:00;96671.94;;;20.33;94.99
6668;BME280;3370;47.712;9.082;2023-07-29T07:48:27;96675.50;;;20.32;90.93
6668;BME280;3370;47.712;9.082;2023-07-29T07:50:54;96665.34;;;20.19;92.82
6668;BME280;3370;47.712;9.082;2023-07-29T07:53:19;96665.22;;;20.21;93.60
6668;BME280;3370;47.712;9.082;2023-07-29T07:55:48;96680.19;;;20.28;93.35
6668;BME280;3370;47.712;9.082;2023-07-29T07:58:14;96684.84;;;20.25;93.76
6668;BME280;3370;47.712;9.082;2023-07-29T08:00:39;96674.84;;;20.30;94.76
6668;BME280;3370;47.712;9.082;2023-07-29T08:03:05;96674.44;;;20.35;93.97
6668;BME280;3370;47.712;9.082;2023-07-29T08:05:31;96670.97;;;20.44;94.24
6668;BME280;3370;47.712;9.082;2023-07-29T08:07:57;96664.63;;;20.46;91.35
6668;BME280;3370;47.712;9.082;2023-07-29T08:10:23;96666.00;;;20.70;93.20
6668;BME280;3370;47.712;9.082;2023-07-29T08:12:49;96669.91;;;20.94;94.17
6668;BME280;3370;47.712;9.082;2023-07-29T08:15:15;96661.69;;;20.89;89.66
6668;BME280;3370;47.712;9.082;2023-07-29T08:17:41;96667.88;;;20.87;90.88
6668;BME280;3370;47.712;9.082;2023-07-29T08:20:07;96673.78;;;20.90;90.20
6668;BME280;3370;47.712;9.082;2023-07-29T08:22:33;96668.38;;;21.01;90.73
6668;BME280;3370;47.712;9.082;2023-07-29T08:24:58;96675.75;;;21.15;88.25
6668;BME280;3370;47.712;9.082;2023-07-29T08:27:24;96669.94;;;21.21;87.56
6668;BME280;3370;47.712;9.082;2023-07-29T08:29:50;96676.81;;;21.22;89.49
6668;BME280;3370;47.712;9.082;2023-07-29T08:32:16;96680.50;;;21.30;87.07
6668;BME280;3370;47.712;9.082;2023-07-29T08:34:41;96672.75;;;21.38;88.57
6668;BME280;3370;47.712;9.082;2023-07-29T08:37:07;96679.47;;;21.50;87.39
6668;BME280;3370;47.712;9.082;2023-07-29T08:39:33;96680.91;;;21.62;87.65
6668;BME280;3370;47.712;9.082;2023-07-29T08:42:04;96677.03;;;21.67;84.53
6668;BME280;3370;47.712;9.082;2023-07-29T08:44:43;96672.91;;;21.64;84.09
6668;BME280;3370;47.712;9.082;2023-07-29T08:47:09;96671.19;;;21.73;86.19
6668;BME280;3370;47.712;9.082;2023-07-29T08:49:37;96674.03;;;21.61;85.09
6668;BME280;3370;47.712;9.082;2023-07-29T08:52:04;96674.03;;;21.61;84.85
6668;BME280;3370;47.712;9.082;2023-07-29T08:54:30;96673.38;;;21.59;83.41
6668;BME280;3370;47.712;9.082;2023-07-29T08:56:57;96673.38;;;21.59;84.56
6668;BME280;3370;47.712;9.082;2023-07-29T08:59:23;96684.53;;;21.79;84.83
6668;BME280;3370;47.712;9.082;2023-07-29T09:01:49;96665.59;;;21.86;82.41
6668;BME280;3370;47.712;9.082;2023-07-29T09:04:15;96673.69;;;21.92;82.37
6668;BME280;3370;47.712;9.082;2023-07-29T09:06:43;96672.84;;;22.10;85.22
6668;BME280;3370;47.712;9.082;2023-07-29T09:09:10;96668.66;;;22.17;82.09
6668;BME280;3370;47.712;9.082;2023-07-29T09:11:35;96674.66;;;22.27;81.87
6668;BME280;3370;47.712;9.082;2023-07-29T09:14:01;96668.06;;;22.23;84.58
6668;BME280;3370;47.712;9.082;2023-07-29T09:16:27;96669.50;;;22.35;83.18
6668;BME280;3370;47.712;9.082;2023-07-29T09:18:53;96667.94;;;22.43;80.27
6668;BME280;3370;47.712;9.082;2023-07-29T09:21:24;96665.06;;;22.54;82.01
6668;BME280;3370;47.712;9.082;2023-07-29T09:23:54;96656.94;;;22.65;78.04
6668;BME280;3370;47.712;9.082;2023-07-29T09:26:27;96657.22;;;22.62;79.89
6668;BME280;3370;47.712;9.082;2023-07-29T09:28:58;96661.88;;;22.68;78.97
6668;BME280;3370;47.712;9.082;2023-07-29T09:31:26;96671.31;;;22.61;77.06
6668;BME280;3370;47.712;9.082;2023-07-29T09:34:01;96665.75;;;22.64;76.50
6668;BME280;3370;47.712;9.082;2023-07-29T09:36:29;96673.56;;;22.82;79.93
6668;BME280;3370;47.712;9.082;2023-07-29T09:38:57;96668.91;;;22.94;79.38
6668;BME280;3370;47.712;9.082;2023-07-29T09:41:28;96673.47;;;22.92;75.27
6668;BME280;3370;47.712;9.082;2023-07-29T09:44:02;96663.44;;;22.87;77.42
6668;BME280;3370;47.712;9.082;2023-07-29T09:46:35;96668.66;;;23.05;79.67
6668;BME280;3370;47.712;9.082;2023-07-29T09:49:06;96665.34;;;23.03;76.92
6668;BME280;3370;47.712;9.082;2023-07-29T09:51:36;96656.19;;;23.07;76.54
6668;BME280;3370;47.712;9.082;2023-07-29T09:54:03;96664.06;;;23.07;75.42
6668;BME280;3370;47.712;9.082;2023-07-29T09:56:29;96653.03;;;23.30;75.97
6668;BME280;3370;47.712;9.082;2023-07-29T09:58:58;96653.03;;;23.38;73.45
6668;BME280;3370;47.712;9.082;2023-07-29T10:01:24;96656.00;;;23.35;74.15
6668;BME280;3370;47.712;9.082;2023-07-29T10:03:50;96660.97;;;23.46;75.09
6668;BME280;3370;47.712;9.082;2023-07-29T10:06:18;96665.69;;;23.43;72.39
6668;BME280;3370;47.712;9.082;2023-07-29T10:08:44;96661.06;;;23.28;70.95
6668;BME280;3370;47.712;9.082;2023-07-29T10:11:11;96653.03;;;23.38;73.80
6668;BME280;3370;47.712;9.082;2023-07-29T10:13:38;96653.44;;;23.51;72.53
6668;BME280;3370;47.712;9.082;2023-07-29T10:16:04;96663.28;;;23.58;71.91
6668;BME280;3370;47.712;9.082;2023-07-29T10:18:32;96654.75;;;23.56;72.53
6668;BME280;3370;47.712;9.082;2023-07-29T10:21:00;96647.34;;;23.51;72.35
6668;BME280;3370;47.712;9.082;2023-07-29T10:23:28;96657.72;;;23.69;74.06
6668;BME280;3370;47.712;9.082;2023-07-29T10:26:02;96644.94;;;23.74;71.26
6668;BME280;3370;47.712;9.082;2023-07-29T10:28:30;96650.97;;;23.58;69.23
6668;BME280;3370;47.712;9.082;2023-07-29T10:30:58;96654.13;;;23.78;70.69
6668;BME280;3370;47.712;9.082;2023-07-29T10:33:24;96651.88;;;23.83;70.37
6668;BME280;3370;47.712;9.082;2023-07-29T10:35:51;96650.75;;;23.86;68.55
6668;BME280;3370;47.712;9.082;2023-07-29T10:38:20;96643.97;;;23.75;68.80
6668;BME280;3370;47.712;9.082;2023-07-29T10:40:55;96639.75;;;23.90;70.53
6668;BME280;3370;47.712;9.082;2023-07-29T10:43:35;96646.63;;;24.00;70.55
6668;BME280;3370;47.712;9.082;2023-07-29T10:46:21;96634.81;;;23.96;67.10
6668;BME280;3370;47.712;9.082;2023-07-29T10:54:01;96640.06;;;23.87;66.94
6668;BME280;3370;47.712;9.082;2023-07-29T10:56:32;96631.06;;;23.90;66.15
6668;BME280;3370;47.712;9.082;2023-07-29T11:01:50;96623.66;;;24.43;67.94
6668;BME280;3370;47.712;9.082;2023-07-29T11:04:29;96620.31;;;24.82;65.17
6668;BME280;3370;47.712;9.082;2023-07-29T11:09:40;96612.59;;;25.20;65.41
6668;BME280;3370;47.712;9.082;2023-07-29T11:15:27;96612.72;;;24.95;62.97
6668;BME280;3370;47.712;9.082;2023-07-29T11:18:01;96610.19;;;25.10;63.66
6668;BME280;3370;47.712;9.082;2023-07-29T11:20:32;96608.81;;;25.22;62.83
6668;BME280;3370;47.712;9.082;2023-07-29T11:23:00;96607.97;;;25.30;63.07
6668;BME280;3370;47.712;9.082;2023-07-29T11:25:29;96597.59;;;25.37;64.27
6668;BME280;3370;47.712;9.082;2023-07-29T11:27:57;96604.16;;;24.93;63.48
6668;BME280;3370;47.712;9.082;2023-07-29T11:30:23;96602.50;;;25.00;63.60
6668;BME280;3370;47.712;9.082;2023-07-29T11:32:53;96597.97;;;25.17;65.21
6668;BME280;3370;47.712;9.082;2023-07-29T11:35:20;96594.88;;;25.14;63.76
6668;BME280;3370;47.712;9.082;2023-07-29T11:37:48;96596.16;;;25.26;63.59
6668;BME280;3370;47.712;9.082;2023-07-29T11:40:20;96596.38;;;25.08;62.96
6668;BME280;3370;47.712;9.082;2023-07-29T11:42:48;96574.94;;;25.19;63.60
6668;BME280;3370;47.712;9.082;2023-07-29T11:45:16;96567.88;;;25.20;63.98
6668;BME280;3370;47.712;9.082;2023-07-29T11:47:41;96575.34;;;25.39;61.94
6668;BME280;3370;47.712;9.082;2023-07-29T11:50:10;96574.78;;;25.75;62.37
6668;BME280;3370;47.712;9.082;2023-07-29T11:52:37;96563.81;;;25.95;62.60
6668;BME280;3370;47.712;9.082;2023-07-29T11:55:04;96567.28;;;26.10;61.45
6668;BME280;3370;47.712;9.082;2023-07-29T11:57:36;96563.81;;;25.95;60.64
6668;BME280;3370;47.712;9.082;2023-07-29T12:00:05;96563.88;;;25.63;58.26
6668;BME280;3370;47.712;9.082;2023-07-29T12:02:33;96559.63;;;25.54;59.00
6668;BME280;3370;47.712;9.082;2023-07-29T12:05:04;96567.75;;;25.44;61.83
6668;BME280;3370;47.712;9.082;2023-07-29T12:07:31;96564.00;;;25.08;63.56
6668;BME280;3370;47.712;9.082;2023-07-29T12:09:57;96571.50;;;24.87;63.46
6668;BME280;3370;47.712;9.082;2023-07-29T12:12:23;96572.13;;;24.90;64.51
6668;BME280;3370;47.712;9.082;2023-07-29T12:14:49;96586.81;;;24.76;64.30
6668;BME280;3370;47.712;9.082;2023-07-29T12:17:15;96599.31;;;24.65;66.62
6668;BME280;3370;47.712;9.082;2023-07-29T12:19:42;96593.09;;;24.58;66.33
6668;BME280;3370;47.712;9.082;2023-07-29T12:22:10;96604.28;;;24.36;67.83
6668;BME280;3370;47.712;9.082;2023-07-29T12:24:39;96613.16;;;24.18;67.23
6668;BME280;3370;47.712;9.082;2023-07-29T12:27:09;96620.38;;;24.00;69.53
6668;BME280;3370;47.712;9.082;2023-07-29T12:29:40;96644.25;;;23.56;72.35
6668;BME280;3370;47.712;9.082;2023-07-29T12:32:07;96639.41;;;23.26;73.61
6668;BME280;3370;47.712;9.082;2023-07-29T12:34:33;96648.38;;;22.89;76.23
6668;BME280;3370;47.712;9.082;2023-07-29T12:37:03;96647.59;;;22.63;77.83
6668;BME280;3370;47.712;9.082;2023-07-29T12:39:34;96654.13;;;22.40;80.97
6668;BME280;3370;47.712;9.082;2023-07-29T12:42:01;96646.66;;;22.10;87.04
6668;BME280;3370;47.712;9.082;2023-07-29T12:44:34;96643.75;;;21.59;96.46
6668;BME280;3370;47.712;9.082;2023-07-29T12:47:02;96637.03;;;21.29;100.00
6668;BME280;3370;47.712;9.082;2023-07-29T12:49:29;96640.34;;;21.21;100.00
6668;BME280;3370;47.712;9.082;2023-07-29T12:51:56;96648.38;;;21.19;100.00
6668;BME280;3370;47.712;9.082;2023-07-29T12:54:22;96646.22;;;21.05;100.00
6668;BME280;3370;47.712;9.082;2023-07-29T12:56:48;96635.94;;;20.94;100.00
6668;BME280;3370;47.712;9.082;2023-07-29T12:59:13;96647.94;;;20.86;100.00
6668;BME280;3370;47.712;9.082;2023-07-29T13:01:40;96645.22;;;20.78;100.00
6668;BME280;3370;47.712;9.082;2023-07-29T13:04:06;96657.75;;;20.75;100.00
6668;BME280;3370;47.712;9.082;2023-07-29T13:06:32;96665.03;;;20.71;100.00
6668;BME280;3370;47.712;9.082;2023-07-29T13:08:58;96664.50;;;20.67;100.00
6668;BME280;3370;47.712;9.082;2023-07-29T13:11:23;96656.53;;;20.69;100.00
6668;BME280;3370;47.712;9.082;2023-07-29T13:13:49;96651.03;;;20.72;100.00
6668;BME280;3370;47.712;9.082;2023-07-29T13:16:15;96658.03;;;20.72;99.98
6668;BME280;3370;47.712;9.082;2023-07-29T13:18:43;96672.47;;;20.66;100.00
6668;BME280;3370;47.712;9.082;2023-07-29T13:21:09;96672.47;;;20.56;100.00
6668;BME280;3370;47.712;9.082;2023-07-29T13:23:35;96677.69;;;20.66;100.00
6668;BME280;3370;47.712;9.082;2023-07-29T13:26:01;96691.31;;;20.60;99.50
6668;BME280;3370;47.712;9.082;2023-07-29T13:28:26;96691.56;;;20.57;99.73
6668;BME280;3370;47.712;9.082;2023-07-29T13:30:52;96697.09;;;20.63;100.00
6668;BME280;3370;47.712;9.082;2023-07-29T13:33:18;96722.78;;;20.68;99.70
6668;BME280;3370;47.712;9.082;2023-07-29T13:35:44;96730.22;;;20.63;98.19